createdAt,value
2022-08-09T00:00:57.483Z,69.40
2022-08-09T00:04:08.509Z,69.27
2022-08-09T00:06:22.878Z,69.58
2022-08-09T00:08:51.832Z,69.80
2022-08-09T00:11:25.196Z,70.09
2022-08-09T00:13:55.712Z,69.90
2022-08-09T00:16:26.190Z,70.52
2022-08-09T00:19:09.437Z,70.65
2022-08-09T00:21:43.120Z,70.83
2022-08-09T00:24:24.437Z,70.53
2022-08-09T00:26:52.381Z,70.90
2022-08-09T00:30:16.093Z,70.86
2022-08-09T00:32:07.986Z,71.26
2022-08-09T00:34:40.351Z,71.30
2022-08-09T00:37:21.722Z,71.10
2022-08-09T00:40:13.364Z,71.03
2022-08-09T00:44:19.800Z,71.08
2022-08-09T00:45:24.741Z,71.11
2022-08-09T00:47:53.194Z,71.27
2022-08-09T00:50:23.458Z,71.40
2022-08-09T00:52:51.242Z,71.38
2022-08-09T00:56:03.052Z,71.62
2022-08-09T00:58:06.549Z,72.00
2022-08-09T01:00:39.628Z,72.41
2022-08-09T01:03:16.436Z,72.63
2022-08-09T01:05:58.639Z,72.78
2022-08-09T01:08:52.649Z,73.23
2022-08-09T01:11:55.656Z,73.72
2022-08-09T01:14:33.964Z,74.08
2022-08-09T01:17:11.081Z,73.94
2022-08-09T01:20:01.530Z,74.48
2022-08-09T01:23:12.408Z,74.38
2022-08-09T01:26:16.531Z,74.82
2022-08-09T01:28:49.119Z,74.51
2022-08-09T01:32:28.110Z,73.97
2022-08-09T01:34:13.887Z,74.26
2022-08-09T01:36:46.407Z,74.19
2022-08-09T01:39:17.641Z,74.02
2022-08-09T01:41:59.793Z,74.43
2022-08-09T01:44:34.402Z,74.42
2022-08-09T01:47:04.216Z,74.29
2022-08-09T01:49:39.041Z,74.23
2022-08-09T01:52:14.552Z,74.10
2022-08-09T01:54:56.474Z,73.81
2022-08-09T01:57:45.808Z,74.05
2022-08-09T02:00:35.605Z,74.19
2022-08-09T02:03:04.422Z,73.89
2022-08-09T02:05:53.458Z,74.33
2022-08-09T02:08:39.435Z,74.37
2022-08-09T02:11:17.227Z,74.74
2022-08-09T02:13:55.280Z,74.86
2022-08-09T02:16:53.284Z,74.99
2022-08-09T02:19:38.769Z,74.90
2022-08-09T02:22:16.131Z,75.00
2022-08-09T02:24:51.731Z,75.24
2022-08-09T02:27:27.464Z,75.27
2022-08-09T02:30:15.862Z,75.49
2022-08-09T02:32:49.322Z,75.35
2022-08-09T02:36:01.623Z,75.50
2022-08-09T02:38:28.709Z,75.69
2022-08-09T02:41:02.958Z,75.86
2022-08-09T02:43:42.634Z,75.99
2022-08-09T02:46:27.380Z,76.29
2022-08-09T02:48:59.906Z,76.15
2022-08-09T02:51:36.967Z,76.42
2022-08-09T02:54:10.079Z,76.35
2022-08-09T02:56:39.042Z,76.36
2022-08-09T02:59:14.857Z,76.55
2022-08-09T03:02:06.033Z,76.45
2022-08-09T03:04:37.594Z,76.87
2022-08-09T03:07:12.155Z,77.09
2022-08-09T03:09:42.857Z,77.27
2022-08-09T03:12:13.425Z,77.13
2022-08-09T03:14:44.036Z,77.39
2022-08-09T03:17:20.309Z,77.45
2022-08-09T03:20:00.452Z,77.77
2022-08-09T03:22:41.448Z,77.79
2022-08-09T03:25:26.379Z,78.10
2022-08-09T03:28:00.266Z,78.36
2022-08-09T03:30:34.015Z,78.45
2022-08-09T03:33:17.645Z,78.77
2022-08-09T03:36:13.536Z,78.92
2022-08-09T03:38:42.050Z,79.17
2022-08-09T03:41:16.308Z,79.47
2022-08-09T03:44:03.454Z,79.47
2022-08-09T03:46:35.213Z,79.86
2022-08-09T03:49:08.320Z,79.88
2022-08-09T03:51:57.535Z,79.76
2022-08-09T03:54:31.132Z,79.59
2022-08-09T03:57:04.499Z,79.61
2022-08-09T03:59:54.424Z,79.89
2022-08-09T04:02:26.581Z,79.82
2022-08-09T04:04:57.263Z,80.18
2022-08-09T04:07:47.440Z,80.16
2022-08-09T04:10:28.414Z,80.23
2022-08-09T04:13:03.938Z,80.28
2022-08-09T04:16:17.912Z,80.63
2022-08-09T04:18:21.255Z,80.75
2022-08-09T04:20:49.940Z,80.82
2022-08-09T04:23:24.346Z,80.80
2022-08-09T04:25:53.041Z,80.49
2022-08-09T04:28:33.547Z,80.56
2022-08-09T04:31:10.079Z,80.26
2022-08-09T04:33:52.258Z,79.83
2022-08-09T04:36:26.039Z,79.62
2022-08-09T04:38:55.094Z,79.55
2022-08-09T04:41:31.972Z,79.10
2022-08-09T04:44:07.368Z,78.35
2022-08-09T04:46:58.705Z,77.87
2022-08-09T04:49:52.778Z,77.27
2022-08-09T04:52:26.127Z,76.41
2022-08-09T04:54:58.990Z,75.96
2022-08-09T04:57:27.220Z,75.38
2022-08-09T05:00:16.598Z,74.61
2022-08-09T05:02:48.672Z,73.49
2022-08-09T05:05:32.109Z,72.28
2022-08-09T05:08:13.963Z,70.34
2022-08-09T05:10:43.461Z,68.02
2022-08-09T05:13:14.786Z,66.38
2022-08-09T05:15:48.080Z,64.28
2022-08-09T05:18:38.363Z,62.62
2022-08-09T05:21:13.333Z,62.08
2022-08-09T05:23:57.874Z,59.95
2022-08-09T05:26:45.612Z,57.43
2022-08-09T05:29:21.081Z,58.13
2022-08-09T05:31:59.089Z,56.69
2022-08-09T05:34:33.203Z,54.97
2022-08-09T05:37:11.352Z,52.93
2022-08-09T05:39:43.397Z,51.69
2022-08-09T05:42:17.509Z,51.04
2022-08-09T05:44:50.630Z,50.74
2022-08-09T05:47:21.529Z,49.26
2022-08-09T05:50:30.835Z,49.19
2022-08-09T05:52:40.050Z,48.64
2022-08-09T05:55:18.226Z,47.66
2022-08-09T05:57:50.937Z,47.93
2022-08-09T06:00:26.208Z,47.22
2022-08-09T06:02:56.934Z,44.91
2022-08-09T06:05:31.324Z,46.59
2022-08-09T06:08:19.439Z,44.87
2022-08-09T06:10:52.422Z,43.51
2022-08-09T06:13:23.125Z,43.32
2022-08-09T06:15:52.318Z,44.29
2022-08-09T06:18:25.591Z,45.68
2022-08-09T06:20:59.046Z,46.34
2022-08-09T06:23:57.746Z,48.07
2022-08-09T06:26:22.468Z,49.18
2022-08-09T06:29:00.591Z,49.01
2022-08-09T06:31:40.234Z,50.25
2022-08-09T06:34:22.750Z,50.36
2022-08-09T06:36:57.438Z,49.94
2022-08-09T06:39:48.980Z,50.38
2022-08-09T06:42:24.780Z,49.95
2022-08-09T06:44:57.324Z,49.71
2022-08-09T06:47:30.229Z,49.26
2022-08-09T06:50:19.074Z,48.37
2022-08-09T06:52:52.627Z,47.69
2022-08-09T06:55:24.158Z,47.31
2022-08-09T06:58:03.034Z,46.98
2022-08-09T07:00:55.467Z,46.84
2022-08-09T07:03:20.098Z,46.94
2022-08-09T07:06:02.952Z,46.89
2022-08-09T07:08:33.600Z,46.92
2022-08-09T07:11:06.417Z,46.19
2022-08-09T07:13:45.035Z,46.18
2022-08-09T07:16:41.232Z,46.26
2022-08-09T07:19:15.016Z,45.79
2022-08-09T07:21:55.370Z,45.24
2022-08-09T07:24:32.773Z,45.25
2022-08-09T07:27:27.251Z,44.81
2022-08-09T07:30:01.698Z,44.72
2022-08-09T07:32:33.458Z,43.98
2022-08-09T07:35:12.503Z,43.66
2022-08-09T07:37:45.554Z,43.19
2022-08-09T07:40:20.645Z,42.71
2022-08-09T07:42:58.546Z,42.37
2022-08-09T07:45:39.310Z,41.62
2022-08-09T07:48:28.451Z,41.85
2022-08-09T07:51:09.560Z,41.51
2022-08-09T07:54:06.786Z,40.43
2022-08-09T07:56:49.972Z,39.99
2022-08-09T07:59:34.531Z,39.83
2022-08-09T08:02:10.283Z,39.02
2022-08-09T08:04:48.877Z,38.72
2022-08-09T08:08:06.584Z,37.46
2022-08-09T08:10:08.548Z,38.32
2022-08-09T08:12:49.097Z,37.38
2022-08-09T08:15:23.033Z,37.05
2022-08-09T08:17:58.014Z,35.64
2022-08-09T08:20:32.621Z,35.65
2022-08-09T08:23:15.774Z,35.13
2022-08-09T08:25:49.853Z,34.41
2022-08-09T08:28:31.934Z,33.81
2022-08-09T08:31:04.863Z,32.61
2022-08-09T08:33:53.811Z,33.55
2022-08-09T08:36:29.052Z,32.92
2022-08-09T08:38:57.576Z,32.31
2022-08-09T08:41:42.223Z,32.59
2022-08-09T08:44:14.638Z,31.85
2022-08-09T08:46:59.655Z,32.30
2022-08-09T08:49:38.934Z,31.47
2022-08-09T08:55:07.287Z,30.48
2022-08-09T08:57:37.176Z,29.46
2022-08-09T09:00:20.282Z,29.23
2022-08-09T09:02:52.774Z,29.34
2022-08-09T09:05:58.152Z,28.29
2022-08-09T09:08:29.988Z,28.57
2022-08-09T09:11:04.098Z,27.22
2022-08-09T09:13:55.214Z,27.20
2022-08-09T09:16:35.610Z,27.18
2022-08-09T09:19:37.058Z,26.65
2022-08-09T09:22:03.962Z,26.66
2022-08-09T09:24:43.407Z,27.00
2022-08-09T09:28:03.106Z,26.25
2022-08-09T09:30:35.957Z,25.81
2022-08-09T09:33:16.820Z,26.46
2022-08-09T09:36:02.549Z,25.77
2022-08-09T09:38:50.627Z,26.60
2022-08-09T09:41:26.139Z,25.83
2022-08-09T09:44:11.971Z,25.93
2022-08-09T09:46:46.237Z,26.05
2022-08-09T09:49:56.004Z,25.81
2022-08-09T09:52:33.519Z,24.76
2022-08-09T09:55:27.817Z,25.18
2022-08-09T09:58:17.346Z,24.93
2022-08-09T10:00:54.736Z,24.79
2022-08-09T10:03:56.314Z,25.22
2022-08-09T10:06:32.099Z,25.18
2022-08-09T10:09:11.583Z,24.75
2022-08-09T10:12:07.616Z,25.61
2022-08-09T10:14:48.505Z,25.40
2022-08-09T10:17:51.152Z,25.21
2022-08-09T10:20:27.386Z,24.62
2022-08-09T10:23:13.599Z,23.96
2022-08-09T10:26:07.794Z,24.73
2022-08-09T10:28:35.838Z,24.74
2022-08-09T10:34:08.038Z,24.63
2022-08-09T10:36:42.234Z,23.85
2022-08-09T10:39:16.098Z,24.03
2022-08-09T10:41:48.320Z,24.51
2022-08-09T10:44:25.081Z,24.99
2022-08-09T10:47:01.389Z,25.06
2022-08-09T10:49:50.193Z,25.20
2022-08-09T10:52:43.006Z,25.87
2022-08-09T10:55:28.789Z,27.70
2022-08-09T10:58:35.060Z,28.80
2022-08-09T11:03:05.681Z,29.28
2022-08-09T11:04:20.106Z,29.45
2022-08-09T11:07:01.672Z,29.56
2022-08-09T11:09:38.906Z,28.51
2022-08-09T11:12:17.946Z,27.16
2022-08-09T11:14:54.977Z,27.21
2022-08-09T11:17:26.555Z,26.54
2022-08-09T11:20:10.482Z,26.81
2022-08-09T11:22:43.358Z,26.79
2022-08-09T11:25:16.637Z,25.97
2022-08-09T11:28:04.173Z,26.47
2022-08-09T11:30:37.941Z,25.97
2022-08-09T11:33:17.919Z,26.87
2022-08-09T11:35:56.262Z,27.89
2022-08-09T11:38:32.512Z,28.68
2022-08-09T11:41:04.788Z,29.58
2022-08-09T11:43:32.624Z,29.90
2022-08-09T11:46:05.274Z,30.38
2022-08-09T11:48:53.725Z,31.10
2022-08-09T11:53:11.404Z,31.30
2022-08-09T11:54:28.901Z,31.87
2022-08-09T11:57:47.383Z,31.63
2022-08-09T12:00:31.758Z,31.72
2022-08-09T12:03:50.337Z,31.90
2022-08-09T12:05:49.882Z,31.87
2022-08-09T12:08:21.477Z,32.97
2022-08-09T12:10:53.958Z,33.33
2022-08-09T12:14:09.786Z,33.46
2022-08-09T12:16:38.515Z,33.58
2022-08-09T12:19:10.006Z,33.68
2022-08-09T12:21:48.645Z,33.59
2022-08-09T12:24:25.806Z,33.90
2022-08-09T12:29:15.614Z,34.16
2022-08-09T12:30:01.458Z,34.30
2022-08-09T12:32:32.704Z,34.26
2022-08-09T12:35:04.601Z,34.05
2022-08-09T12:37:50.586Z,33.59
2022-08-09T12:40:27.000Z,34.00
2022-08-09T12:42:57.587Z,34.38
2022-08-09T12:45:34.204Z,34.37
2022-08-09T12:48:27.826Z,34.43
2022-08-09T12:50:59.604Z,34.80
2022-08-09T12:53:44.762Z,35.26
2022-08-09T12:56:39.727Z,35.45
2022-08-09T12:59:14.321Z,35.64
2022-08-09T13:01:48.687Z,36.08
2022-08-09T13:04:37.653Z,36.01
2022-08-09T13:07:14.380Z,35.86
2022-08-09T13:09:52.956Z,36.33
2022-08-09T13:12:24.182Z,36.40
2022-08-09T13:14:55.031Z,36.59
2022-08-09T13:17:43.797Z,37.01
2022-08-09T13:20:18.890Z,37.30
2022-08-09T13:23:02.135Z,37.30
2022-08-09T13:25:53.303Z,37.38
2022-08-09T13:28:35.611Z,37.66
2022-08-09T13:32:15.020Z,37.71
2022-08-09T13:33:56.674Z,37.71
2022-08-09T13:36:42.167Z,37.56
2022-08-09T13:41:19.374Z,37.30
2022-08-09T13:42:04.698Z,37.32
2022-08-09T13:44:35.657Z,37.33
2022-08-09T13:47:29.520Z,37.07
2022-08-09T13:49:57.569Z,37.13
2022-08-09T13:52:33.608Z,36.85
2022-08-09T13:55:07.197Z,36.47
2022-08-09T13:57:40.360Z,36.09
2022-08-09T14:00:15.463Z,35.98
2022-08-09T14:03:03.603Z,35.95
2022-08-09T14:05:59.586Z,35.91
2022-08-09T14:08:28.275Z,36.31
2022-08-09T14:10:56.514Z,36.27
2022-08-09T14:14:17.362Z,36.33
2022-08-09T14:16:16.952Z,36.47
2022-08-09T14:18:50.430Z,36.34
2022-08-09T14:21:24.311Z,36.34
2022-08-09T14:23:57.318Z,36.17
2022-08-09T14:26:33.596Z,36.46
2022-08-09T14:29:25.856Z,36.45
2022-08-09T14:31:56.134Z,36.54
2022-08-09T14:34:31.892Z,36.71
2022-08-09T14:37:08.648Z,36.82
2022-08-09T14:39:45.445Z,36.94
2022-08-09T14:42:29.072Z,36.96
2022-08-09T14:45:01.608Z,36.94
2022-08-09T14:47:57.400Z,37.05
2022-08-09T14:50:31.062Z,36.89
2022-08-09T14:53:03.286Z,36.84
2022-08-09T14:55:42.247Z,36.81
2022-08-09T14:58:15.713Z,36.61
2022-08-09T15:00:47.998Z,36.57
2022-08-09T15:03:21.383Z,36.39
2022-08-09T15:05:51.442Z,36.33
2022-08-09T15:08:23.670Z,36.42
2022-08-09T15:11:00.936Z,36.44
2022-08-09T15:13:48.542Z,36.49
2022-08-09T15:16:17.351Z,36.31
2022-08-09T15:18:48.910Z,36.26
2022-08-09T15:21:55.664Z,36.35
2022-08-09T15:24:12.867Z,36.44
2022-08-09T15:26:45.935Z,36.42
2022-08-09T15:30:56.674Z,36.38
2022-08-09T15:32:01.607Z,36.46
2022-08-09T15:34:34.486Z,36.63
2022-08-09T15:37:23.704Z,36.66
2022-08-09T15:39:54.699Z,37.10
2022-08-09T15:42:22.891Z,36.99
2022-08-09T15:44:51.570Z,36.98
2022-08-09T15:47:21.668Z,36.82
2022-08-09T15:50:03.746Z,36.86
2022-08-09T15:52:34.113Z,36.75
2022-08-09T15:55:02.912Z,36.86
2022-08-09T15:57:35.799Z,37.04
2022-08-09T16:00:25.357Z,37.11
2022-08-09T16:02:56.392Z,37.14
2022-08-09T16:05:46.986Z,37.22
2022-08-09T16:08:30.628Z,37.47
2022-08-09T16:11:01.552Z,37.83
2022-08-09T16:14:04.156Z,38.00
2022-08-09T16:16:18.877Z,38.33
2022-08-09T16:18:47.752Z,38.37
2022-08-09T16:21:17.514Z,38.47
2022-08-09T16:23:58.780Z,38.58
2022-08-09T16:26:34.669Z,38.67
2022-08-09T16:29:11.683Z,38.82
2022-08-09T16:32:17.893Z,38.86
2022-08-09T16:34:54.387Z,39.06
2022-08-09T16:37:17.972Z,39.21
2022-08-09T16:40:02.596Z,39.32
2022-08-09T16:42:34.041Z,39.36
2022-08-09T16:45:01.781Z,39.56
2022-08-09T16:48:42.959Z,39.65
2022-08-09T16:50:30.041Z,39.85
2022-08-09T16:53:02.366Z,40.47
2022-08-09T16:55:58.697Z,40.56
2022-08-09T16:58:21.367Z,40.81
2022-08-09T17:00:49.331Z,41.17
2022-08-09T17:03:22.015Z,41.39
2022-08-09T17:06:07.521Z,41.64
2022-08-09T17:08:59.837Z,42.93
2022-08-09T17:11:37.619Z,43.32
2022-08-09T17:14:25.308Z,43.26
2022-08-09T17:17:01.142Z,43.56
2022-08-09T17:20:06.203Z,43.76
2022-08-09T17:22:31.176Z,44.15
2022-08-09T17:25:04.684Z,44.15
2022-08-09T17:27:39.411Z,43.99
2022-08-09T17:30:17.360Z,44.17
2022-08-09T17:32:48.588Z,44.44
2022-08-09T17:35:18.781Z,44.62
2022-08-09T17:38:11.244Z,44.62
2022-08-09T17:40:35.833Z,44.68
2022-08-09T17:43:32.783Z,44.52
2022-08-09T17:46:03.906Z,44.66
2022-08-09T17:48:39.443Z,44.74
2022-08-09T17:51:18.087Z,44.95
2022-08-09T17:53:54.743Z,45.34
2022-08-09T17:56:35.215Z,45.45
2022-08-09T17:59:09.072Z,45.61
2022-08-09T18:02:03.682Z,45.90
2022-08-09T18:04:28.656Z,46.10
2022-08-09T18:06:59.116Z,46.42
2022-08-09T18:09:40.054Z,46.58
2022-08-09T18:12:20.423Z,46.87
2022-08-09T18:14:54.593Z,47.28
2022-08-09T18:17:27.313Z,47.36
2022-08-09T18:20:56.210Z,47.66
2022-08-09T18:23:05.124Z,47.57
2022-08-09T18:25:52.972Z,47.64
2022-08-09T18:30:39.326Z,47.56
2022-08-09T18:31:12.923Z,47.63
2022-08-09T18:33:40.692Z,47.74
2022-08-09T18:36:14.080Z,47.87
2022-08-09T18:39:00.987Z,47.90
2022-08-09T18:41:34.841Z,48.10
2022-08-09T18:44:03.760Z,48.07
2022-08-09T18:46:50.074Z,48.29
2022-08-09T18:49:23.642Z,47.90
2022-08-09T18:51:55.632Z,47.89
2022-08-09T18:54:29.884Z,45.25
2022-08-09T18:57:05.243Z,43.41
2022-08-09T18:59:37.555Z,42.14
2022-08-09T19:02:18.007Z,41.33
2022-08-09T19:04:47.640Z,41.02
2022-08-09T19:07:28.474Z,40.10
2022-08-09T19:10:14.639Z,39.00
2022-08-09T19:12:52.657Z,38.45
2022-08-09T19:15:27.591Z,38.29
2022-08-09T19:17:58.254Z,38.49
2022-08-09T19:20:26.840Z,38.40
2022-08-09T19:23:06.429Z,38.52
2022-08-09T19:26:01.130Z,38.43
2022-08-09T19:28:22.237Z,38.71
2022-08-09T19:30:56.314Z,38.75
2022-08-09T19:33:23.865Z,38.65
2022-08-09T19:35:58.545Z,38.58
2022-08-09T19:38:27.563Z,38.74
2022-08-09T19:40:57.585Z,38.82
2022-08-09T19:44:01.918Z,38.51
2022-08-09T19:46:17.711Z,37.76
2022-08-09T19:50:09.219Z,37.80
2022-08-09T19:51:55.828Z,37.63
2022-08-09T19:54:25.249Z,37.58
2022-08-09T19:56:55.470Z,37.19
2022-08-09T19:59:58.620Z,37.42
2022-08-09T20:02:15.789Z,37.21
2022-08-09T20:05:09.904Z,37.23
2022-08-09T20:08:00.194Z,37.30
2022-08-09T20:10:33.944Z,37.18
2022-08-09T20:13:05.359Z,37.17
2022-08-09T20:16:36.360Z,37.26
2022-08-09T20:18:27.559Z,37.25
2022-08-09T20:20:58.807Z,37.46
2022-08-09T20:23:39.080Z,37.53
2022-08-09T20:26:09.900Z,37.53
2022-08-09T20:28:49.725Z,37.69
2022-08-09T20:31:19.762Z,37.75
2022-08-09T20:33:52.432Z,37.72
2022-08-09T20:36:28.737Z,37.83
2022-08-09T20:39:18.639Z,37.87
2022-08-09T20:41:44.274Z,37.95
2022-08-09T20:44:16.866Z,38.06
2022-08-09T20:46:54.229Z,38.00
2022-08-09T20:49:21.838Z,38.03
2022-08-09T20:51:50.732Z,37.95
2022-08-09T20:54:18.587Z,38.02
2022-08-09T20:56:49.765Z,38.21
2022-08-09T20:59:49.973Z,38.22
2022-08-09T21:02:17.427Z,38.34
2022-08-09T21:05:51.899Z,38.34
2022-08-09T21:07:40.189Z,38.33
2022-08-09T21:10:09.288Z,37.73
2022-08-09T21:12:39.065Z,37.44
2022-08-09T21:15:12.538Z,37.58
2022-08-09T21:18:25.394Z,37.56
2022-08-09T21:20:30.264Z,37.39
2022-08-09T21:22:58.658Z,37.46
2022-08-09T21:26:02.153Z,37.42
2022-08-09T21:28:35.013Z,37.27
2022-08-09T21:31:18.181Z,37.34
2022-08-09T21:33:56.633Z,37.18
2022-08-09T21:36:28.929Z,37.22
2022-08-09T21:38:59.340Z,36.97
2022-08-09T21:42:00.365Z,36.93
2022-08-09T21:44:32.866Z,36.96
2022-08-09T21:47:04.346Z,36.97
2022-08-09T21:49:39.450Z,37.07
2022-08-09T21:52:15.072Z,37.20
2022-08-09T21:55:03.621Z,37.50
2022-08-09T21:57:58.555Z,37.96
2022-08-09T22:00:32.422Z,38.35
2022-08-09T22:03:05.530Z,38.77
2022-08-09T22:05:36.680Z,39.02
2022-08-09T22:08:11.893Z,39.09
2022-08-09T22:11:01.063Z,39.20
2022-08-09T22:13:34.100Z,39.35
2022-08-09T22:16:04.340Z,39.37
2022-08-09T22:18:34.954Z,39.45
2022-08-09T22:21:09.850Z,39.52
2022-08-09T22:23:59.663Z,39.58
2022-08-09T22:26:37.950Z,39.73
2022-08-09T22:29:09.912Z,39.66
2022-08-09T22:31:50.615Z,39.74
2022-08-09T22:34:28.159Z,39.77
2022-08-09T22:36:58.955Z,39.88
2022-08-09T22:39:57.738Z,39.88
2022-08-09T22:42:21.131Z,39.85
2022-08-09T22:48:06.018Z,39.91
2022-08-09T22:48:10.455Z,40.02
2022-08-09T22:50:31.772Z,40.06
2022-08-09T22:53:03.763Z,40.09
2022-08-09T22:56:05.920Z,40.09
2022-08-09T22:58:32.794Z,40.50
2022-08-09T23:01:03.700Z,40.45
2022-08-09T23:04:03.992Z,40.76
2022-08-09T23:06:35.229Z,40.74
2022-08-09T23:09:03.900Z,40.96
2022-08-09T23:11:31.435Z,41.02
2022-08-09T23:13:59.682Z,41.19
2022-08-09T23:16:32.163Z,41.32
2022-08-09T23:19:00.000Z,41.53
2022-08-09T23:21:36.363Z,42.07
2022-08-09T23:24:07.315Z,42.12
2022-08-09T23:26:38.214Z,42.26
2022-08-09T23:29:09.923Z,42.28
2022-08-09T23:31:37.783Z,42.40
2022-08-09T23:34:05.794Z,42.47
2022-08-09T23:36:34.898Z,42.56
2022-08-09T23:39:03.519Z,42.69
2022-08-09T23:41:33.456Z,42.79
2022-08-09T23:44:04.755Z,42.96
2022-08-09T23:46:32.983Z,43.02
2022-08-09T23:49:01.660Z,43.44
2022-08-09T23:51:29.674Z,43.23
2022-08-09T23:54:02.178Z,43.31
2022-08-09T23:56:53.692Z,43.40
2022-08-09T23:59:20.623Z,43.53
